Time;durP1;ratioP1;P1;durP2;ratioP2;P2;SDS_P1;SDS_P2;PMS_P1;PMS_P2;Temp;Humidity;BMP_temperature;BMP_pressure;BME280_temperature;BME280_humidity;BME280_pressure;Samples;Min_cycle;Max_cycle;Signal;HPM_P1;HPM_P2
2020/12/23 00:00:10;;;;;;;8.85;1.60;;;8.90;99.90;;;;;;5050799;28;20021;-80
2020/12/23 00:02:36;;;;;;;5.72;1.05;;;8.80;99.90;;;;;;5048733;28;20501;-80
2020/12/23 00:05:07;;;;;;;11.52;1.40;;;8.80;99.90;;;;;;5051680;28;20032;-80
2020/12/23 00:07:32;;;;;;;7.60;1.70;;;8.80;99.90;;;;;;5050592;28;20052;-80
2020/12/23 00:09:58;;;;;;;13.15;2.17;;;8.80;99.90;;;;;;5050010;28;20495;-79
2020/12/23 00:12:23;;;;;;;6.20;1.65;;;8.80;99.90;;;;;;5058550;28;20051;-80
2020/12/23 00:14:49;;;;;;;9.48;1.58;;;8.80;99.90;;;;;;5053167;28;20037;-80
2020/12/23 00:17:18;;;;;;;9.15;2.10;;;8.90;99.90;;;;;;5052022;28;20045;-79
2020/12/23 00:19:44;;;;;;;11.23;1.88;;;9.00;99.90;;;;;;5055365;28;20045;-79
2020/12/23 00:22:09;;;;;;;13.68;1.92;;;9.10;99.90;;;;;;5053177;28;20636;-80
2020/12/23 00:24:34;;;;;;;9.43;2.28;;;9.00;99.90;;;;;;5054576;28;20024;-80
2020/12/23 00:27:00;;;;;;;9.25;1.55;;;8.90;99.90;;;;;;5062749;28;20033;-80
2020/12/23 00:29:25;;;;;;;13.60;1.60;;;9.00;99.90;;;;;;5051888;28;20047;-80
2020/12/23 00:31:53;;;;;;;13.07;1.80;;;9.00;99.90;;;;;;5047846;28;20032;-80
2020/12/23 00:34:18;;;;;;;10.80;1.65;;;9.10;99.90;;;;;;5055196;28;20017;-80
2020/12/23 00:36:44;;;;;;;8.23;1.52;;;9.10;99.90;;;;;;5051918;28;20032;-80
2020/12/23 00:39:10;;;;;;;7.43;1.60;;;9.10;99.90;;;;;;5058048;28;20376;-80
2020/12/23 00:41:35;;;;;;;8.85;1.77;;;9.10;99.90;;;;;;5049573;28;20025;-80
2020/12/23 00:44:00;;;;;;;6.28;1.58;;;9.10;99.90;;;;;;5050075;28;20108;-80
2020/12/23 00:46:26;;;;;;;10.18;1.55;;;9.20;99.90;;;;;;5060860;28;20028;-80
2020/12/23 00:48:51;;;;;;;6.30;1.45;;;9.10;99.90;;;;;;5049821;28;20483;-80
2020/12/23 00:51:17;;;;;;;7.82;1.55;;;9.10;99.90;;;;;;5058563;28;20435;-80
2020/12/23 00:53:43;;;;;;;10.90;2.22;;;9.10;99.90;;;;;;5051791;28;20070;-80
2020/12/23 00:56:09;;;;;;;6.07;1.35;;;9.10;99.90;;;;;;5054375;28;20021;-80
2020/12/23 00:58:35;;;;;;;6.05;1.48;;;9.10;99.90;;;;;;5052919;28;20032;-80
2020/12/23 01:01:00;;;;;;;8.55;1.63;;;9.10;99.90;;;;;;5053855;28;20116;-80
2020/12/23 01:03:26;;;;;;;6.32;1.58;;;9.10;99.90;;;;;;5047574;28;20039;-80
2020/12/23 01:05:52;;;;;;;14.75;1.50;;;9.00;99.90;;;;;;5055021;28;20115;-80
2020/12/23 01:08:17;;;;;;;4.75;1.73;;;9.00;99.90;;;;;;5052848;28;20025;-79
2020/12/23 01:10:45;;;;;;;6.57;1.65;;;9.00;99.90;;;;;;5052596;28;20055;-80
2020/12/23 01:13:10;;;;;;;6.03;1.35;;;9.00;99.90;;;;;;5049423;28;20055;-80
2020/12/23 01:15:36;;;;;;;5.85;1.70;;;9.00;99.90;;;;;;5051248;28;20037;-80
2020/12/23 01:18:02;;;;;;;11.45;1.80;;;9.00;99.90;;;;;;5052431;28;20272;-80
2020/12/23 01:20:28;;;;;;;10.38;1.40;;;9.00;99.90;;;;;;5054598;28;20052;-79
2020/12/23 01:22:53;;;;;;;4.45;1.15;;;8.90;99.90;;;;;;5049141;28;20028;-80
2020/12/23 01:25:19;;;;;;;11.93;1.60;;;8.90;99.90;;;;;;5053308;28;20096;-80
2020/12/23 01:27:44;;;;;;;12.52;1.60;;;9.00;99.90;;;;;;5047485;28;20491;-80
2020/12/23 01:30:10;;;;;;;13.02;1.65;;;8.90;99.90;;;;;;5052700;28;20373;-80
2020/12/23 01:32:35;;;;;;;7.57;1.45;;;8.80;99.90;;;;;;5049265;28;20267;-80
2020/12/23 01:35:01;;;;;;;14.07;1.42;;;8.80;99.90;;;;;;5046923;28;20025;-80
2020/12/23 01:37:26;;;;;;;5.63;1.67;;;8.80;99.90;;;;;;5050860;28;20039;-80
2020/12/23 01:39:51;;;;;;;9.30;1.10;;;8.70;99.90;;;;;;5049892;28;20123;-80
2020/12/23 01:42:17;;;;;;;9.82;1.63;;;8.70;99.90;;;;;;5046948;28;20446;-80
2020/12/23 01:44:42;;;;;;;9.48;2.25;;;8.70;99.90;;;;;;5047130;28;20048;-80
2020/12/23 01:47:14;;;;;;;9.60;1.85;;;8.80;99.90;;;;;;5046607;28;20044;-80
2020/12/23 01:49:39;;;;;;;4.10;1.40;;;8.80;99.90;;;;;;5046562;28;20037;-80
2020/12/23 01:52:05;;;;;;;9.13;1.35;;;8.80;99.90;;;;;;5047976;28;20029;-80
2020/12/23 01:54:30;;;;;;;12.73;1.85;;;8.90;99.90;;;;;;5049076;28;20475;-80
2020/12/23 01:56:57;;;;;;;11.13;2.08;;;9.00;99.90;;;;;;5057353;28;20090;-80
2020/12/23 01:59:24;;;;;;;15.98;2.33;;;9.00;99.90;;;;;;5047124;28;20033;-80
2020/12/23 02:02:07;;;;;;;6.25;1.50;;;9.10;99.90;;;;;;5049896;28;20036;-80
2020/12/23 02:04:32;;;;;;;14.23;2.00;;;9.00;99.90;;;;;;5055904;28;20487;-80
2020/12/23 02:06:58;;;;;;;9.50;1.40;;;8.80;99.90;;;;;;5054442;28;20025;-80
2020/12/23 02:09:26;;;;;;;11.60;1.55;;;8.80;99.90;;;;;;5057612;28;20044;-80
2020/12/23 02:11:53;;;;;;;4.75;1.17;;;8.90;99.90;;;;;;5059854;28;20037;-79
2020/12/23 02:14:19;;;;;;;15.77;1.60;;;8.90;99.90;;;;;;5052204;28;20475;-79
2020/12/23 02:16:44;;;;;;;11.45;1.80;;;8.90;99.90;;;;;;5054469;28;20039;-80
2020/12/23 02:19:09;;;;;;;8.10;1.30;;;8.80;99.90;;;;;;5050441;28;20507;-80
2020/12/23 02:21:35;;;;;;;10.63;1.60;;;8.80;99.90;;;;;;5059101;28;20143;-80
2020/12/23 02:24:01;;;;;;;12.15;1.63;;;8.80;99.90;;;;;;5062929;28;20025;-80
2020/12/23 02:26:26;;;;;;;5.68;1.27;;;8.80;99.90;;;;;;5064471;28;20641;-80
2020/12/23 02:28:52;;;;;;;9.27;1.55;;;8.70;99.90;;;;;;5052377;28;20057;-80
2020/12/23 02:31:17;;;;;;;12.02;1.52;;;8.70;99.90;;;;;;5052282;28;20611;-80
2020/12/23 02:33:43;;;;;;;8.27;1.48;;;8.80;99.90;;;;;;5050903;28;20028;-80
2020/12/23 02:36:08;;;;;;;7.22;1.80;;;8.80;99.90;;;;;;5051812;28;20041;-80
2020/12/23 02:38:34;;;;;;;5.88;1.50;;;8.80;99.90;;;;;;5049942;28;20033;-80
2020/12/23 02:41:00;;;;;;;7.78;1.30;;;8.70;99.90;;;;;;5050500;28;20112;-80
2020/12/23 02:43:25;;;;;;;7.25;1.40;;;8.70;99.90;;;;;;5052773;28;20037;-80
2020/12/23 02:45:51;;;;;;;6.38;2.08;;;8.60;99.90;;;;;;5054079;28;20439;-80
2020/12/23 02:48:16;;;;;;;9.40;1.63;;;8.50;99.90;;;;;;5051981;28;20033;-80
2020/12/23 02:50:42;;;;;;;9.13;1.70;;;8.50;99.90;;;;;;5050660;28;20418;-80
2020/12/23 02:53:07;;;;;;;8.20;1.10;;;8.50;99.90;;;;;;5049485;28;20052;-80
2020/12/23 02:55:33;;;;;;;10.25;1.60;;;8.50;99.90;;;;;;5055006;28;20104;-80
2020/12/23 02:57:58;;;;;;;6.93;1.52;;;8.50;99.90;;;;;;5055221;28;20020;-80
2020/12/23 03:00:24;;;;;;;8.43;1.55;;;8.50;99.90;;;;;;5055748;28;20086;-80
2020/12/23 03:02:49;;;;;;;6.40;1.42;;;8.30;99.90;;;;;;5050881;28;20115;-80
2020/12/23 03:05:15;;;;;;;8.52;1.48;;;8.30;99.90;;;;;;5058943;28;20206;-80
2020/12/23 03:07:40;;;;;;;13.00;1.67;;;8.30;99.90;;;;;;5056560;28;20042;-80
2020/12/23 03:10:06;;;;;;;6.30;1.45;;;8.20;99.90;;;;;;5057951;28;20522;-79
2020/12/23 03:12:31;;;;;;;8.07;1.30;;;8.30;99.90;;;;;;5064777;28;20056;-80
2020/12/23 03:14:56;;;;;;;8.10;1.20;;;8.30;99.90;;;;;;5050363;28;20025;-80
2020/12/23 03:17:22;;;;;;;8.35;1.38;;;8.40;99.90;;;;;;5053384;28;20058;-80
2020/12/23 03:19:47;;;;;;;8.75;1.27;;;8.30;99.90;;;;;;5059357;28;20053;-80
2020/12/23 03:22:13;;;;;;;5.63;1.00;;;8.30;99.90;;;;;;5057328;28;20029;-80
2020/12/23 03:24:38;;;;;;;6.93;1.17;;;8.40;99.90;;;;;;5063484;28;20089;-80
2020/12/23 03:27:04;;;;;;;8.88;1.70;;;8.40;99.90;;;;;;5067212;28;20032;-80
2020/12/23 03:29:29;;;;;;;7.70;2.28;;;8.40;99.90;;;;;;5053566;28;20025;-80
2020/12/23 03:31:55;;;;;;;5.25;1.40;;;8.30;99.90;;;;;;5055390;28;20017;-80
2020/12/23 03:34:20;;;;;;;9.85;1.40;;;8.40;99.90;;;;;;5049102;28;20025;-80
2020/12/23 03:36:46;;;;;;;8.80;1.38;;;8.40;99.90;;;;;;5049360;28;20505;-80
2020/12/23 03:39:11;;;;;;;9.40;1.55;;;8.30;99.90;;;;;;5048713;28;20176;-80
2020/12/23 03:41:36;;;;;;;7.20;1.38;;;8.30;99.90;;;;;;5049796;28;20399;-80
2020/12/23 03:44:02;;;;;;;5.40;1.45;;;8.30;99.90;;;;;;5053574;28;20036;-80
2020/12/23 03:46:28;;;;;;;6.07;1.42;;;8.40;99.90;;;;;;5057622;28;20082;-80
2020/12/23 03:48:56;;;;;;;12.38;1.90;;;8.40;99.90;;;;;;5048885;28;20024;-80
2020/12/23 03:51:22;;;;;;;15.05;1.58;;;8.40;99.90;;;;;;5049180;28;20246;-80
2020/12/23 03:53:47;;;;;;;11.63;1.40;;;8.40;99.90;;;;;;5050041;28;20060;-80
2020/12/23 03:56:13;;;;;;;5.35;1.15;;;8.50;99.90;;;;;;5051712;28;20036;-80
2020/12/23 03:58:38;;;;;;;6.53;1.65;;;8.50;99.90;;;;;;5050171;28;20025;-80
2020/12/23 04:01:04;;;;;;;6.70;1.30;;;8.30;99.90;;;;;;5054831;28;20028;-80
2020/12/23 04:03:29;;;;;;;13.18;1.83;;;8.30;99.90;;;;;;5048488;28;20124;-80
2020/12/23 04:05:54;;;;;;;4.68;1.00;;;8.30;99.90;;;;;;5048548;28;20021;-80
2020/12/23 04:08:20;;;;;;;9.15;1.48;;;8.30;99.90;;;;;;5047773;28;20051;-80
2020/12/23 04:10:45;;;;;;;11.38;1.73;;;8.40;99.90;;;;;;5054122;28;20042;-80
2020/12/23 04:13:11;;;;;;;3.20;1.27;;;8.40;99.90;;;;;;5056685;28;20497;-80
2020/12/23 04:15:36;;;;;;;8.25;1.33;;;8.30;99.90;;;;;;5052456;28;20078;-80
2020/12/23 04:18:02;;;;;;;11.30;1.55;;;8.40;99.90;;;;;;5051811;28;20542;-80
2020/12/23 04:20:27;;;;;;;12.20;1.50;;;8.40;99.90;;;;;;5052890;28;20122;-80
2020/12/23 04:22:53;;;;;;;7.20;1.30;;;8.40;99.90;;;;;;5051422;28;20027;-80
2020/12/23 04:25:18;;;;;;;7.10;1.23;;;8.40;99.90;;;;;;5051693;28;20052;-80
2020/12/23 04:27:44;;;;;;;7.53;1.45;;;8.40;99.90;;;;;;5050586;28;20116;-79
2020/12/23 04:30:09;;;;;;;6.47;1.88;;;8.40;99.90;;;;;;5049115;28;20029;-80
2020/12/23 04:32:35;;;;;;;8.00;1.60;;;8.40;99.90;;;;;;5058608;28;20036;-80
2020/12/23 04:35:03;;;;;;;6.57;2.22;;;8.40;99.90;;;;;;5050764;28;20079;-80
2020/12/23 04:37:30;;;;;;;11.75;2.25;;;8.40;99.90;;;;;;5048392;28;20104;-80
2020/12/23 04:39:56;;;;;;;5.80;1.85;;;8.40;99.90;;;;;;5052195;28;20028;-80
2020/12/23 04:42:22;;;;;;;12.25;1.63;;;8.40;99.90;;;;;;5047515;28;20715;-80
2020/12/23 04:44:48;;;;;;;7.85;2.15;;;8.30;99.90;;;;;;5047818;28;20052;-80
2020/12/23 04:47:15;;;;;;;5.15;1.15;;;8.40;99.90;;;;;;5047586;28;20025;-80
2020/12/23 04:49:45;;;;;;;11.63;1.50;;;8.30;99.90;;;;;;5049363;28;20036;-80
2020/12/23 04:52:12;;;;;;;7.93;1.30;;;8.40;99.90;;;;;;5050018;28;20063;-80
2020/12/23 04:54:38;;;;;;;7.55;1.35;;;8.40;99.90;;;;;;5050380;28;20028;-80
2020/12/23 04:57:04;;;;;;;9.43;1.40;;;8.40;99.90;;;;;;5060466;28;20168;-79
2020/12/23 04:59:30;;;;;;;8.48;1.42;;;8.40;99.90;;;;;;5048291;28;20116;-80
2020/12/23 05:02:01;;;;;;;6.38;1.38;;;8.40;99.90;;;;;;5050015;28;20033;-80
2020/12/23 05:04:27;;;;;;;2.70;1.23;;;8.30;99.90;;;;;;5052569;28;20542;-80
2020/12/23 05:07:04;;;;;;;11.57;1.67;;;8.30;99.90;;;;;;5056413;28;20403;-79
2020/12/23 05:09:30;;;;;;;6.07;1.13;;;8.30;99.90;;;;;;5048100;28;20033;-80
2020/12/23 05:11:56;;;;;;;9.38;1.67;;;8.30;99.90;;;;;;5061523;28;20037;-80
2020/12/23 05:14:22;;;;;;;10.10;1.48;;;8.30;99.90;;;;;;5052999;28;20111;-79
2020/12/23 05:16:48;;;;;;;10.05;1.60;;;8.30;99.90;;;;;;5056627;28;20452;-80
2020/12/23 05:19:16;;;;;;;5.90;1.90;;;8.30;99.90;;;;;;5046890;28;20079;-80
2020/12/23 05:21:42;;;;;;;11.32;1.58;;;8.40;99.90;;;;;;5047885;28;20033;-80
2020/12/23 05:24:08;;;;;;;7.45;1.25;;;8.50;99.90;;;;;;5060921;28;20495;-80
2020/12/23 05:26:38;;;;;;;6.47;1.45;;;8.50;99.90;;;;;;5052194;28;20064;-79
2020/12/23 05:29:03;;;;;;;11.20;1.83;;;8.70;99.90;;;;;;5047026;28;20052;-80
2020/12/23 05:31:32;;;;;;;7.60;1.83;;;8.60;99.90;;;;;;5057531;28;20500;-80
2020/12/23 05:33:58;;;;;;;10.13;1.52;;;8.40;99.90;;;;;;5050941;28;20032;-79
2020/12/23 05:36:25;;;;;;;10.10;1.50;;;8.50;99.90;;;;;;5048240;28;20048;-80
2020/12/23 05:38:51;;;;;;;8.82;1.50;;;8.50;99.90;;;;;;5057620;28;20025;-80
2020/12/23 05:41:17;;;;;;;10.00;1.83;;;8.40;99.90;;;;;;5046277;28;20137;-79
2020/12/23 05:43:43;;;;;;;8.98;1.42;;;8.40;99.90;;;;;;5047145;28;20440;-79
2020/12/23 05:46:10;;;;;;;4.13;1.15;;;8.40;99.90;;;;;;5046466;28;20033;-79
2020/12/23 05:48:37;;;;;;;8.38;1.67;;;8.50;99.90;;;;;;5047975;28;20033;-79
2020/12/23 05:51:05;;;;;;;6.82;1.55;;;8.40;99.90;;;;;;5053737;28;20104;-80
2020/12/23 05:53:33;;;;;;;8.82;1.75;;;8.40;99.90;;;;;;5046349;28;20033;-80
2020/12/23 05:56:00;;;;;;;8.15;1.70;;;8.30;99.90;;;;;;5058100;28;20036;-80
2020/12/23 05:58:30;;;;;;;6.82;1.70;;;8.30;99.90;;;;;;5049402;28;20024;-80
2020/12/23 06:00:57;;;;;;;11.52;1.30;;;8.30;99.90;;;;;;5047672;28;20029;-79
2020/12/23 06:03:28;;;;;;;9.38;1.95;;;8.40;99.90;;;;;;5045680;28;20040;-79
2020/12/23 06:06:02;;;;;;;15.07;1.98;;;8.30;99.90;;;;;;5051704;28;20032;-79
2020/12/23 06:08:35;;;;;;;8.85;1.65;;;8.30;99.90;;;;;;5046472;28;20037;-79
2020/12/23 06:11:30;;;;;;;12.02;2.03;;;8.20;99.90;;;;;;5050838;28;20021;-80
2020/12/23 06:14:11;;;;;;;5.28;1.40;;;8.20;99.90;;;;;;5046810;28;20029;-80
2020/12/23 06:16:41;;;;;;;10.40;1.67;;;8.30;99.90;;;;;;5049523;28;20133;-80
2020/12/23 06:19:20;;;;;;;6.90;1.70;;;8.30;99.90;;;;;;5050430;28;20036;-79
2020/12/23 06:21:47;;;;;;;6.88;1.73;;;8.30;99.90;;;;;;5048076;28;20037;-80
2020/12/23 06:24:15;;;;;;;10.70;1.70;;;8.40;99.90;;;;;;5060658;28;20082;-80
2020/12/23 06:26:43;;;;;;;10.23;1.88;;;8.40;99.90;;;;;;5049996;28;20066;-80
2020/12/23 06:29:10;;;;;;;7.35;1.55;;;8.40;99.90;;;;;;5054250;28;20115;-80
2020/12/23 06:31:41;;;;;;;7.10;1.38;;;8.40;99.90;;;;;;5057121;28;20025;-78
2020/12/23 06:34:07;;;;;;;8.23;1.87;;;8.30;99.90;;;;;;5046884;28;20499;-78
2020/12/23 06:36:34;;;;;;;8.13;1.50;;;8.30;99.90;;;;;;5045855;28;20285;-78
2020/12/23 06:39:18;;;;;;;12.23;1.92;;;8.30;99.90;;;;;;5051527;28;20024;-78
2020/12/23 06:41:43;;;;;;;4.68;1.58;;;8.30;99.90;;;;;;5048070;28;20115;-86
2020/12/23 06:44:09;;;;;;;6.25;1.48;;;8.30;99.90;;;;;;5046407;28;20460;-84
2020/12/23 06:46:59;;;;;;;10.77;1.70;;;8.40;99.90;;;;;;5046560;28;20033;-86
2020/12/23 06:49:43;;;;;;;9.07;1.30;;;8.30;99.90;;;;;;5050061;28;20083;-85
2020/12/23 06:52:24;;;;;;;10.50;1.60;;;8.30;99.90;;;;;;5062130;28;20075;-85
2020/12/23 06:55:09;;;;;;;9.35;1.70;;;8.40;99.90;;;;;;5048275;28;20108;-81
2020/12/23 07:00:47;;;;;;;;;;;8.40;99.90;;;;;;5044009;28;20045;-82
2020/12/23 07:03:12;;;;;;;11.07;1.50;;;8.30;99.90;;;;;;5040263;28;19919;-83
2020/12/23 07:05:40;;;;;;;15.80;2.35;;;8.40;99.90;;;;;;5040437;28;20120;-83
2020/12/23 07:08:08;;;;;;;13.55;2.40;;;8.50;99.90;;;;;;5040582;28;20033;-83
2020/12/23 07:10:39;;;;;;;6.63;1.20;;;8.60;99.90;;;;;;5044245;28;20060;-83
2020/12/23 07:13:13;;;;;;;8.18;1.40;;;8.50;99.90;;;;;;5048727;28;20029;-83
2020/12/23 07:15:41;;;;;;;13.65;2.35;;;8.40;99.90;;;;;;5051978;28;20025;-83
2020/12/23 07:18:16;;;;;;;18.30;2.20;;;8.50;99.90;;;;;;5039861;28;20029;-83
2020/12/23 07:20:48;;;;;;;8.20;2.03;;;8.50;99.90;;;;;;5040162;28;20120;-83
2020/12/23 07:23:15;;;;;;;11.15;2.53;;;8.50;99.90;;;;;;5040050;28;20033;-83
2020/12/23 07:25:54;;;;;;;9.18;2.17;;;8.60;99.90;;;;;;5049317;28;20028;-79
2020/12/23 07:28:31;;;;;;;11.63;2.00;;;8.60;99.90;;;;;;5043248;28;20607;-83
2020/12/23 07:30:58;;;;;;;13.88;3.25;;;8.70;99.90;;;;;;5049251;28;20049;-82
2020/12/23 07:33:25;;;;;;;9.85;1.85;;;8.70;99.90;;;;;;5047249;28;20029;-81
2020/12/23 07:35:54;;;;;;;11.98;2.75;;;8.70;99.90;;;;;;5045827;28;20036;-81
2020/12/23 07:38:22;;;;;;;8.48;1.73;;;8.70;99.90;;;;;;5048363;28;20016;-84
2020/12/23 07:40:47;;;;;;;11.23;1.60;;;8.70;99.90;;;;;;5048594;28;20037;-80
2020/12/23 07:43:15;;;;;;;8.73;1.85;;;8.80;99.90;;;;;;5049700;28;20041;-81
2020/12/23 07:45:40;;;;;;;8.80;1.75;;;8.80;99.90;;;;;;5045178;28;20483;-80
2020/12/23 07:48:08;;;;;;;9.90;1.50;;;8.80;99.90;;;;;;5048203;28;20025;-84
2020/12/23 07:50:39;;;;;;;9.18;1.75;;;8.90;99.90;;;;;;5048983;28;20036;-82
2020/12/23 07:53:12;;;;;;;7.15;1.67;;;8.90;99.90;;;;;;5041655;28;20032;-82
2020/12/23 07:55:38;;;;;;;15.23;2.17;;;8.80;99.90;;;;;;5041945;28;20116;-82
2020/12/23 07:58:04;;;;;;;8.52;1.85;;;8.90;99.90;;;;;;5046717;28;20029;-82
2020/12/23 08:00:29;;;;;;;17.33;2.60;;;9.00;99.90;;;;;;5050674;28;20039;-81
2020/12/23 08:02:55;;;;;;;12.48;3.00;;;8.90;99.90;;;;;;5051503;28;20025;-82
2020/12/23 08:05:21;;;;;;;13.57;2.50;;;9.00;99.90;;;;;;5044731;28;20028;-85
2020/12/23 08:07:46;;;;;;;13.63;2.70;;;9.00;99.90;;;;;;5046327;28;20055;-83
2020/12/23 08:10:47;;;;;;;19.45;3.53;;;9.00;99.90;;;;;;5041807;28;20081;-82
2020/12/23 08:13:25;;;;;;;25.92;3.83;;;9.00;99.90;;;;;;5012492;28;20490;-82
2020/12/23 08:16:02;;;;;;;16.48;3.13;;;9.10;99.90;;;;;;5038272;28;20032;-82
2020/12/23 08:18:28;;;;;;;18.90;4.15;;;9.10;99.90;;;;;;5038862;28;20039;-82
2020/12/23 08:20:53;;;;;;;14.95;3.47;;;9.10;99.90;;;;;;5044981;28;20032;-82
2020/12/23 08:23:19;;;;;;;19.63;3.67;;;9.10;99.90;;;;;;5042488;28;20036;-82
2020/12/23 08:25:44;;;;;;;15.38;3.25;;;9.10;99.90;;;;;;5061574;28;20085;-82
2020/12/23 08:28:11;;;;;;;18.00;4.55;;;9.10;99.90;;;;;;5049059;28;20499;-82
2020/12/23 08:30:39;;;;;;;17.70;3.13;;;9.10;99.90;;;;;;5042437;28;20555;-82
2020/12/23 08:33:13;;;;;;;22.48;3.33;;;9.20;99.90;;;;;;5046325;28;20040;-82
2020/12/23 08:35:40;;;;;;;14.35;2.88;;;9.20;99.90;;;;;;5051733;28;20491;-82
2020/12/23 08:38:17;;;;;;;14.43;2.55;;;9.20;99.90;;;;;;5047813;28;20025;-82
2020/12/23 08:40:51;;;;;;;15.18;3.03;;;9.30;99.90;;;;;;5044412;28;20029;-82
2020/12/23 08:43:23;;;;;;;11.95;2.58;;;9.30;99.90;;;;;;5047652;28;20115;-81
2020/12/23 08:45:50;;;;;;;13.57;2.95;;;9.30;99.90;;;;;;5041258;28;20033;-82
2020/12/23 08:48:20;;;;;;;14.13;3.25;;;9.30;99.90;;;;;;5039961;28;20025;-82
2020/12/23 08:51:02;;;;;;;15.82;4.50;;;9.30;99.90;;;;;;5038460;28;20032;-82
2020/12/23 08:53:37;;;;;;;16.08;3.35;;;9.40;99.90;;;;;;5039636;28;20055;-82
2020/12/23 08:56:21;;;;;;;18.58;3.33;;;9.40;99.90;;;;;;5040630;28;20044;-82
2020/12/23 08:59:00;;;;;;;15.20;3.88;;;9.30;99.90;;;;;;5048636;28;20067;-82
2020/12/23 09:01:29;;;;;;;12.35;3.15;;;9.40;99.90;;;;;;5041685;28;20033;-82
2020/12/23 09:04:05;;;;;;;17.73;3.42;;;9.50;99.90;;;;;;5044324;28;20033;-82
2020/12/23 09:06:32;;;;;;;11.82;3.13;;;9.40;99.90;;;;;;5051468;28;20063;-83
2020/12/23 09:09:22;;;;;;;13.45;2.55;;;9.40;99.90;;;;;;5048172;28;20468;-82
2020/12/23 09:11:52;;;;;;;16.17;3.38;;;9.40;99.90;;;;;;5053268;28;20036;-82
2020/12/23 09:14:31;;;;;;;8.43;2.63;;;9.50;99.90;;;;;;5051898;28;20462;-81
2020/12/23 09:17:06;;;;;;;15.40;2.92;;;9.40;99.90;;;;;;5047358;28;20032;-81
2020/12/23 09:19:59;;;;;;;12.70;3.55;;;9.50;99.90;;;;;;5041459;28;20106;-81
2020/12/23 09:22:34;;;;;;;16.67;3.28;;;9.50;99.90;;;;;;5043115;28;20029;-81
2020/12/23 09:25:21;;;;;;;15.50;3.33;;;9.60;99.90;;;;;;5042858;28;20074;-82
2020/12/23 09:27:54;;;;;;;12.10;2.88;;;9.60;99.90;;;;;;5054816;28;20033;-81
2020/12/23 09:30:44;;;;;;;14.85;3.10;;;9.50;99.90;;;;;;5039821;28;20387;-82
2020/12/23 09:33:18;;;;;;;14.90;3.55;;;9.50;99.90;;;;;;5041812;28;20749;-81
2020/12/23 09:35:45;;;;;;;9.68;2.67;;;9.60;99.90;;;;;;5038020;28;20103;-81
2020/12/23 09:38:27;;;;;;;15.27;3.17;;;9.70;99.90;;;;;;5037996;28;20513;-81
2020/12/23 09:40:54;;;;;;;11.35;2.50;;;9.60;99.90;;;;;;5036083;28;20029;-81
2020/12/23 09:43:23;;;;;;;10.18;2.45;;;9.60;99.90;;;;;;5039396;28;20025;-81
2020/12/23 09:45:50;;;;;;;12.43;2.67;;;9.60;99.90;;;;;;5038348;28;20039;-82
2020/12/23 09:48:17;;;;;;;14.70;2.83;;;9.50;99.90;;;;;;5037593;28;20029;-81
2020/12/23 09:50:44;;;;;;;9.73;1.90;;;9.50;99.90;;;;;;5049880;28;20487;-81
2020/12/23 09:53:11;;;;;;;8.82;2.28;;;9.50;99.90;;;;;;5039582;28;20503;-81
2020/12/23 09:55:42;;;;;;;9.23;2.05;;;9.60;99.90;;;;;;5037245;28;20025;-82
2020/12/23 09:58:08;;;;;;;10.45;2.55;;;9.70;99.90;;;;;;5037523;28;20276;-82
2020/12/23 10:00:33;;;;;;;12.15;2.47;;;9.70;99.90;;;;;;5037989;28;20123;-82
2020/12/23 10:02:59;;;;;;;11.65;2.75;;;9.70;99.90;;;;;;5037264;28;20409;-81
2020/12/23 10:05:24;;;;;;;13.70;2.63;;;9.70;99.90;;;;;;5039282;28;20017;-82
2020/12/23 10:07:50;;;;;;;10.02;2.75;;;9.70;99.90;;;;;;5044978;28;20074;-82
2020/12/23 10:10:15;;;;;;;9.93;2.63;;;9.70;99.90;;;;;;5046551;28;20032;-81
2020/12/23 10:12:41;;;;;;;14.40;2.67;;;9.70;99.90;;;;;;5048386;28;20427;-82
2020/12/23 10:15:07;;;;;;;13.95;2.50;;;9.70;99.90;;;;;;5053080;28;20055;-81
2020/12/23 10:17:34;;;;;;;8.70;2.20;;;9.70;99.90;;;;;;5042052;28;20035;-81
2020/12/23 10:20:00;;;;;;;8.98;2.25;;;9.80;99.90;;;;;;5036739;28;20053;-82
2020/12/23 10:22:26;;;;;;;9.55;2.63;;;9.80;99.90;;;;;;5051899;28;20033;-79
2020/12/23 10:24:51;;;;;;;11.93;2.17;;;9.80;99.90;;;;;;5051049;28;20045;-79
2020/12/23 10:27:17;;;;;;;9.43;2.63;;;9.90;99.90;;;;;;5050478;28;20033;-80
2020/12/23 10:29:42;;;;;;;10.57;2.30;;;10.00;99.90;;;;;;5057817;28;20028;-80
2020/12/23 10:32:08;;;;;;;10.02;2.45;;;9.90;99.90;;;;;;5059492;28;20032;-81
2020/12/23 10:34:33;;;;;;;11.15;2.95;;;9.90;99.90;;;;;;5055217;28;20021;-82
2020/12/23 10:36:59;;;;;;;15.10;2.63;;;9.90;99.90;;;;;;5054559;28;20398;-83
2020/12/23 10:39:24;;;;;;;8.73;2.55;;;9.90;99.90;;;;;;5066063;28;20028;-81
2020/12/23 10:41:54;;;;;;;12.45;2.60;;;9.90;99.90;;;;;;5058253;28;20036;-82
2020/12/23 10:44:21;;;;;;;10.10;2.40;;;9.90;99.90;;;;;;5049895;28;20036;-86
2020/12/23 10:46:51;;;;;;;12.70;2.45;;;10.00;99.90;;;;;;5045350;28;20548;-80
2020/12/23 10:49:17;;;;;;;8.63;2.22;;;10.00;99.90;;;;;;5049208;28;20568;-80
2020/12/23 10:51:47;;;;;;;9.95;2.58;;;10.00;99.90;;;;;;5053001;28;20069;-82
2020/12/23 10:54:13;;;;;;;13.60;2.72;;;10.00;99.90;;;;;;5054415;28;20035;-80
2020/12/23 10:56:38;;;;;;;10.95;2.25;;;10.00;99.90;;;;;;5052990;28;20021;-80
2020/12/23 10:59:04;;;;;;;8.95;2.20;;;10.10;99.90;;;;;;5055408;28;20032;-80
2020/12/23 11:01:29;;;;;;;8.25;2.53;;;10.00;99.90;;;;;;5053624;28;20029;-80
2020/12/23 11:03:55;;;;;;;9.10;2.53;;;10.00;99.90;;;;;;5054143;28;20116;-79
2020/12/23 11:06:20;;;;;;;7.40;2.17;;;10.00;99.90;;;;;;5052854;28;20086;-80
2020/12/23 11:08:47;;;;;;;7.47;2.30;;;10.10;99.90;;;;;;5054521;28;20036;-75
2020/12/23 11:11:13;;;;;;;8.43;2.55;;;10.20;99.90;;;;;;5053577;28;20033;-77
2020/12/23 11:13:40;;;;;;;11.55;3.10;;;10.10;99.90;;;;;;5053984;28;20025;-78
2020/12/23 11:16:06;;;;;;;10.40;2.90;;;10.10;99.90;;;;;;5052772;28;20037;-78
2020/12/23 11:18:31;;;;;;;13.07;2.80;;;10.00;99.90;;;;;;5046423;28;20118;-78
2020/12/23 11:20:56;;;;;;;9.63;3.38;;;10.00;99.90;;;;;;5053060;28;20032;-78
2020/12/23 11:23:26;;;;;;;10.95;2.72;;;10.00;99.90;;;;;;5050842;28;20127;-78
2020/12/23 11:25:51;;;;;;;11.13;3.28;;;10.10;99.90;;;;;;5052413;28;20036;-78
2020/12/23 11:28:17;;;;;;;10.80;3.28;;;10.10;99.90;;;;;;5049507;28;20021;-79
2020/12/23 11:30:43;;;;;;;15.43;3.10;;;10.10;99.90;;;;;;5050516;28;20191;-77
2020/12/23 11:33:08;;;;;;;8.88;3.00;;;10.00;99.90;;;;;;5050014;28;20036;-79
2020/12/23 11:35:34;;;;;;;11.10;3.25;;;10.10;99.90;;;;;;5051260;28;20118;-79
2020/12/23 11:37:59;;;;;;;13.63;3.00;;;10.10;99.90;;;;;;5049985;28;20024;-78
2020/12/23 11:40:24;;;;;;;9.38;2.92;;;10.10;99.90;;;;;;5048939;28;20576;-78
2020/12/23 11:42:50;;;;;;;8.15;3.28;;;10.20;99.90;;;;;;5049967;28;20159;-78
2020/12/23 11:45:15;;;;;;;16.55;4.03;;;10.30;99.90;;;;;;5049516;28;20029;-79
2020/12/23 11:47:41;;;;;;;16.25;3.30;;;10.20;99.90;;;;;;5047906;28;20028;-78
2020/12/23 11:50:06;;;;;;;13.75;4.18;;;10.00;99.90;;;;;;5050565;28;20734;-77
2020/12/23 11:52:32;;;;;;;13.73;3.80;;;10.10;99.90;;;;;;5051225;28;20040;-77
2020/12/23 11:54:57;;;;;;;11.38;3.70;;;10.00;99.90;;;;;;5047655;28;20020;-77
2020/12/23 11:57:38;;;;;;;16.20;3.75;;;10.20;99.90;;;;;;5053837;28;20407;-79
2020/12/23 12:00:13;;;;;;;9.10;3.17;;;10.20;99.90;;;;;;5049269;28;20109;-77
2020/12/23 12:02:50;;;;;;;12.40;3.33;;;10.20;99.90;;;;;;5052960;28;20037;-77
2020/12/23 12:05:15;;;;;;;18.48;4.18;;;10.10;99.90;;;;;;5048170;28;20063;-77
2020/12/23 12:07:41;;;;;;;11.95;3.30;;;10.10;99.90;;;;;;5052604;28;20032;-77
2020/12/23 12:10:07;;;;;;;14.65;3.40;;;10.00;99.90;;;;;;5053538;28;20032;-77
2020/12/23 12:12:34;;;;;;;13.52;3.30;;;10.00;99.90;;;;;;5054109;28;20021;-77
2020/12/23 12:14:59;;;;;;;14.98;3.90;;;10.00;99.90;;;;;;5054404;28;20036;-77
2020/12/23 12:17:25;;;;;;;12.77;4.00;;;10.00;99.90;;;;;;5052053;28;20036;-78
2020/12/23 12:19:51;;;;;;;14.32;3.80;;;10.00;99.90;;;;;;5052916;28;20094;-77
2020/12/23 12:22:16;;;;;;;12.23;3.83;;;9.90;99.90;;;;;;5052703;28;20794;-77
2020/12/23 12:24:42;;;;;;;16.98;4.47;;;10.00;99.90;;;;;;5053336;28;20040;-78
2020/12/23 12:27:08;;;;;;;11.68;3.88;;;10.00;99.90;;;;;;5052659;28;20033;-78
2020/12/23 12:29:33;;;;;;;9.98;3.35;;;9.90;99.90;;;;;;5053609;28;20025;-77
2020/12/23 12:31:59;;;;;;;10.23;3.78;;;9.90;99.90;;;;;;5053457;28;20113;-77
2020/12/23 12:34:24;;;;;;;15.50;4.20;;;10.00;99.90;;;;;;5053253;28;20020;-77
2020/12/23 12:36:53;;;;;;;12.73;4.20;;;10.00;99.90;;;;;;5053388;28;20078;-77
2020/12/23 12:39:18;;;;;;;12.75;3.78;;;10.00;99.90;;;;;;5054222;28;20045;-77
2020/12/23 12:41:44;;;;;;;16.17;3.70;;;9.90;99.90;;;;;;5050829;28;20078;-77
2020/12/23 12:44:10;;;;;;;12.82;3.90;;;9.90;99.90;;;;;;5052574;28;20398;-77
2020/12/23 12:46:35;;;;;;;12.63;4.72;;;10.00;99.90;;;;;;5052437;28;20044;-77
2020/12/23 12:49:01;;;;;;;16.45;4.13;;;10.00;99.90;;;;;;5053036;28;20509;-77
2020/12/23 12:51:27;;;;;;;12.18;3.65;;;10.00;99.90;;;;;;5052330;28;20033;-77
2020/12/23 12:53:53;;;;;;;14.57;3.97;;;9.90;99.90;;;;;;5049089;28;20044;-78
2020/12/23 12:56:26;;;;;;;13.57;3.83;;;9.90;99.90;;;;;;5050599;28;20109;-80